sensor_id;sensor_type;location;lat;lon;timestamp;pressure;altitude;pressure_sealevel;temperature;humidity
6514;BME280;3290;47.716;9.070;2024-03-22T00:00:19;97687.84;;;11.74;92.31
6514;BME280;3290;47.716;9.070;2024-03-22T00:02:44;97685.22;;;11.67;92.88
6514;BME280;3290;47.716;9.070;2024-03-22T00:05:10;97688.25;;;11.64;92.74
6514;BME280;3290;47.716;9.070;2024-03-22T00:07:35;97695.28;;;11.90;91.11
6514;BME280;3290;47.716;9.070;2024-03-22T00:10:01;97691.66;;;11.97;91.29
6514;BME280;3290;47.716;9.070;2024-03-22T00:12:27;97694.50;;;11.70;92.13
6514;BME280;3290;47.716;9.070;2024-03-22T00:14:52;97684.97;;;11.37;93.69
6514;BME280;3290;47.716;9.070;2024-03-22T00:17:20;97685.72;;;11.05;95.84
6514;BME280;3290;47.716;9.070;2024-03-22T00:19:45;97675.34;;;10.72;97.71
6514;BME280;3290;47.716;9.070;2024-03-22T00:22:10;97675.47;;;10.51;98.88
6514;BME280;3290;47.716;9.070;2024-03-22T00:24:35;97672.38;;;10.41;100.00
6514;BME280;3290;47.716;9.070;2024-03-22T00:27:01;97679.25;;;10.42;100.00
6514;BME280;3290;47.716;9.070;2024-03-22T00:29:26;97677.84;;;10.46;100.00
6514;BME280;3290;47.716;9.070;2024-03-22T00:31:52;97677.63;;;10.41;100.00
6514;BME280;3290;47.716;9.070;2024-03-22T00:34:17;97675.88;;;10.14;100.00
6514;BME280;3290;47.716;9.070;2024-03-22T00:36:42;97678.88;;;10.45;99.88
6514;BME280;3290;47.716;9.070;2024-03-22T00:39:08;97674.53;;;10.77;97.64
6514;BME280;3290;47.716;9.070;2024-03-22T00:41:33;97670.50;;;10.69;97.33
6514;BME280;3290;47.716;9.070;2024-03-22T00:43:58;97664.50;;;10.87;96.93
6514;BME280;3290;47.716;9.070;2024-03-22T00:46:23;97661.03;;;10.68;97.34
6514;BME280;3290;47.716;9.070;2024-03-22T00:48:49;97656.31;;;10.57;98.10
6514;BME280;3290;47.716;9.070;2024-03-22T00:51:14;97662.47;;;10.30;99.36
6514;BME280;3290;47.716;9.070;2024-03-22T00:53:40;97663.88;;;10.26;99.78
6514;BME280;3290;47.716;9.070;2024-03-22T00:56:05;97654.69;;;10.09;100.00
6514;BME280;3290;47.716;9.070;2024-03-22T00:58:30;97650.84;;;10.05;100.00
6514;BME280;3290;47.716;9.070;2024-03-22T01:00:56;97642.59;;;10.02;100.00
6514;BME280;3290;47.716;9.070;2024-03-22T01:03:21;97646.00;;;10.02;100.00
6514;BME280;3290;47.716;9.070;2024-03-22T01:05:47;97644.09;;;10.17;99.71
6514;BME280;3290;47.716;9.070;2024-03-22T01:08:12;97641.78;;;10.01;100.00
6514;BME280;3290;47.716;9.070;2024-03-22T01:10:37;97635.44;;;9.90;100.00
6514;BME280;3290;47.716;9.070;2024-03-22T01:13:03;97635.56;;;10.09;100.00
6514;BME280;3290;47.716;9.070;2024-03-22T01:15:28;97631.50;;;10.00;100.00
6514;BME280;3290;47.716;9.070;2024-03-22T01:17:54;97636.72;;;9.73;100.00
6514;BME280;3290;47.716;9.070;2024-03-22T01:20:19;97639.06;;;9.61;100.00
6514;BME280;3290;47.716;9.070;2024-03-22T01:22:45;97637.97;;;9.50;100.00
6514;BME280;3290;47.716;9.070;2024-03-22T01:25:10;97631.16;;;9.55;100.00
6514;BME280;3290;47.716;9.070;2024-03-22T01:27:35;97631.00;;;9.29;100.00
6514;BME280;3290;47.716;9.070;2024-03-22T01:30:02;97637.88;;;9.37;100.00
6514;BME280;3290;47.716;9.070;2024-03-22T01:32:27;97634.50;;;9.70;100.00
6514;BME280;3290;47.716;9.070;2024-03-22T01:34:52;97629.41;;;9.62;100.00
6514;BME280;3290;47.716;9.070;2024-03-22T01:37:17;97627.56;;;9.56;100.00
6514;BME280;3290;47.716;9.070;2024-03-22T01:39:43;97627.94;;;9.53;100.00
6514;BME280;3290;47.716;9.070;2024-03-22T01:42:08;97625.75;;;9.29;100.00
6514;BME280;3290;47.716;9.070;2024-03-22T01:44:33;97629.97;;;9.30;100.00
6514;BME280;3290;47.716;9.070;2024-03-22T01:46:59;97622.66;;;9.19;100.00
6514;BME280;3290;47.716;9.070;2024-03-22T01:49:25;97623.53;;;9.26;100.00
6514;BME280;3290;47.716;9.070;2024-03-22T01:51:51;97622.41;;;9.15;100.00
6514;BME280;3290;47.716;9.070;2024-03-22T01:54:18;97619.25;;;9.19;100.00
6514;BME280;3290;47.716;9.070;2024-03-22T01:56:44;97618.09;;;9.28;100.00
6514;BME280;3290;47.716;9.070;2024-03-22T01:59:09;97611.69;;;9.10;100.00
6514;BME280;3290;47.716;9.070;2024-03-22T02:01:35;97612.97;;;9.41;100.00
6514;BME280;3290;47.716;9.070;2024-03-22T02:04:01;97612.09;;;9.34;100.00
6514;BME280;3290;47.716;9.070;2024-03-22T02:06:27;97615.63;;;9.20;100.00
6514;BME280;3290;47.716;9.070;2024-03-22T02:08:52;97612.03;;;8.79;100.00
6514;BME280;3290;47.716;9.070;2024-03-22T02:11:17;97606.19;;;8.98;100.00
6514;BME280;3290;47.716;9.070;2024-03-22T02:13:44;97607.06;;;8.84;100.00
6514;BME280;3290;47.716;9.070;2024-03-22T02:16:09;97605.00;;;9.01;100.00
6514;BME280;3290;47.716;9.070;2024-03-22T02:18:35;97596.16;;;9.02;100.00
6514;BME280;3290;47.716;9.070;2024-03-22T02:21:00;97588.94;;;9.04;100.00
6514;BME280;3290;47.716;9.070;2024-03-22T02:25:57;97583.97;;;8.88;100.00
6514;BME280;3290;47.716;9.070;2024-03-22T02:28:22;97578.88;;;8.80;100.00
6514;BME280;3290;47.716;9.070;2024-03-22T02:30:48;97588.22;;;8.89;100.00
6514;BME280;3290;47.716;9.070;2024-03-22T02:33:13;97588.34;;;8.81;100.00
6514;BME280;3290;47.716;9.070;2024-03-22T02:35:38;97586.69;;;8.80;100.00
6514;BME280;3290;47.716;9.070;2024-03-22T02:38:04;97582.34;;;8.87;100.00
6514;BME280;3290;47.716;9.070;2024-03-22T02:40:29;97585.91;;;9.00;100.00
6514;BME280;3290;47.716;9.070;2024-03-22T02:42:54;97578.13;;;9.07;100.00
6514;BME280;3290;47.716;9.070;2024-03-22T02:45:20;97575.06;;;9.03;100.00
6514;BME280;3290;47.716;9.070;2024-03-22T02:47:45;97572.91;;;8.65;100.00
6514;BME280;3290;47.716;9.070;2024-03-22T02:50:10;97574.16;;;8.69;100.00
6514;BME280;3290;47.716;9.070;2024-03-22T02:52:36;97563.94;;;8.53;100.00
6514;BME280;3290;47.716;9.070;2024-03-22T02:55:01;97575.16;;;8.47;100.00
6514;BME280;3290;47.716;9.070;2024-03-22T02:57:26;97568.81;;;8.56;100.00
6514;BME280;3290;47.716;9.070;2024-03-22T02:59:51;97564.72;;;8.89;100.00
6514;BME280;3290;47.716;9.070;2024-03-22T03:02:17;97562.22;;;8.81;100.00
6514;BME280;3290;47.716;9.070;2024-03-22T03:04:42;97562.38;;;9.00;100.00
6514;BME280;3290;47.716;9.070;2024-03-22T03:07:07;97559.94;;;8.99;100.00
6514;BME280;3290;47.716;9.070;2024-03-22T03:09:33;97563.19;;;9.01;100.00
6514;BME280;3290;47.716;9.070;2024-03-22T03:11:58;97553.75;;;9.00;100.00
6514;BME280;3290;47.716;9.070;2024-03-22T03:14:23;97558.72;;;8.74;100.00
6514;BME280;3290;47.716;9.070;2024-03-22T03:16:49;97558.47;;;8.69;100.00
6514;BME280;3290;47.716;9.070;2024-03-22T03:19:14;97546.59;;;8.46;100.00
6514;BME280;3290;47.716;9.070;2024-03-22T03:21:39;97553.63;;;8.45;100.00
6514;BME280;3290;47.716;9.070;2024-03-22T03:24:05;97549.84;;;8.48;100.00
6514;BME280;3290;47.716;9.070;2024-03-22T03:26:30;97555.38;;;8.38;100.00
6514;BME280;3290;47.716;9.070;2024-03-22T03:28:55;97553.03;;;8.43;100.00
6514;BME280;3290;47.716;9.070;2024-03-22T03:31:21;97553.50;;;8.53;100.00
6514;BME280;3290;47.716;9.070;2024-03-22T03:33:46;97548.53;;;8.38;100.00
6514;BME280;3290;47.716;9.070;2024-03-22T03:36:11;97543.41;;;8.50;100.00
6514;BME280;3290;47.716;9.070;2024-03-22T03:38:37;97548.22;;;8.47;100.00
6514;BME280;3290;47.716;9.070;2024-03-22T03:41:03;97544.59;;;8.48;100.00
6514;BME280;3290;47.716;9.070;2024-03-22T03:43:28;97539.91;;;8.58;100.00
6514;BME280;3290;47.716;9.070;2024-03-22T03:45:55;97536.47;;;8.37;100.00
6514;BME280;3290;47.716;9.070;2024-03-22T03:48:20;97538.06;;;8.38;100.00
6514;BME280;3290;47.716;9.070;2024-03-22T03:50:53;97533.91;;;8.43;100.00
6514;BME280;3290;47.716;9.070;2024-03-22T03:53:20;97540.63;;;8.52;100.00
6514;BME280;3290;47.716;9.070;2024-03-22T03:55:46;97530.69;;;8.62;100.00
6514;BME280;3290;47.716;9.070;2024-03-22T03:58:11;97530.94;;;8.46;100.00
6514;BME280;3290;47.716;9.070;2024-03-22T04:00:37;97526.66;;;8.38;100.00
6514;BME280;3290;47.716;9.070;2024-03-22T04:03:02;97524.28;;;8.23;100.00
6514;BME280;3290;47.716;9.070;2024-03-22T04:05:27;97518.19;;;8.37;100.00
6514;BME280;3290;47.716;9.070;2024-03-22T04:07:53;97516.03;;;8.40;100.00
6514;BME280;3290;47.716;9.070;2024-03-22T04:10:19;97509.94;;;8.33;100.00
6514;BME280;3290;47.716;9.070;2024-03-22T04:12:44;97508.38;;;8.18;100.00
6514;BME280;3290;47.716;9.070;2024-03-22T04:15:10;97515.16;;;8.33;100.00
6514;BME280;3290;47.716;9.070;2024-03-22T04:17:36;97509.19;;;8.39;100.00
6514;BME280;3290;47.716;9.070;2024-03-22T04:20:02;97504.72;;;8.33;100.00
6514;BME280;3290;47.716;9.070;2024-03-22T04:22:29;97513.97;;;8.36;100.00
6514;BME280;3290;47.716;9.070;2024-03-22T04:24:54;97508.97;;;8.20;100.00
6514;BME280;3290;47.716;9.070;2024-03-22T04:27:20;97499.84;;;8.30;100.00
6514;BME280;3290;47.716;9.070;2024-03-22T04:29:49;97504.13;;;8.38;100.00
6514;BME280;3290;47.716;9.070;2024-03-22T04:32:14;97511.28;;;8.50;100.00
6514;BME280;3290;47.716;9.070;2024-03-22T04:34:42;97512.66;;;8.67;100.00
6514;BME280;3290;47.716;9.070;2024-03-22T04:37:08;97502.50;;;8.57;100.00
6514;BME280;3290;47.716;9.070;2024-03-22T04:39:34;97506.63;;;8.66;100.00
6514;BME280;3290;47.716;9.070;2024-03-22T04:41:59;97511.66;;;8.68;100.00
6514;BME280;3290;47.716;9.070;2024-03-22T04:44:24;97516.13;;;8.74;100.00
6514;BME280;3290;47.716;9.070;2024-03-22T04:46:50;97515.19;;;8.81;100.00
6514;BME280;3290;47.716;9.070;2024-03-22T04:49:15;97515.56;;;8.78;100.00
6514;BME280;3290;47.716;9.070;2024-03-22T04:51:41;97518.31;;;8.70;100.00
6514;BME280;3290;47.716;9.070;2024-03-22T04:54:06;97511.00;;;8.59;100.00
6514;BME280;3290;47.716;9.070;2024-03-22T04:56:31;97511.97;;;8.58;100.00
6514;BME280;3290;47.716;9.070;2024-03-22T04:58:57;97508.59;;;8.64;100.00
6514;BME280;3290;47.716;9.070;2024-03-22T05:01:22;97501.50;;;8.79;100.00
6514;BME280;3290;47.716;9.070;2024-03-22T05:03:49;97501.13;;;8.82;100.00
6514;BME280;3290;47.716;9.070;2024-03-22T05:06:14;97500.75;;;8.85;100.00
6514;BME280;3290;47.716;9.070;2024-03-22T05:08:40;97494.63;;;8.72;100.00
6514;BME280;3290;47.716;9.070;2024-03-22T05:11:06;97493.19;;;8.48;100.00
6514;BME280;3290;47.716;9.070;2024-03-22T05:13:32;97492.47;;;8.34;100.00
6514;BME280;3290;47.716;9.070;2024-03-22T05:15:57;97486.19;;;8.28;100.00
6514;BME280;3290;47.716;9.070;2024-03-22T05:18:23;97491.06;;;8.17;100.00
6514;BME280;3290;47.716;9.070;2024-03-22T05:20:48;97497.19;;;8.44;100.00
6514;BME280;3290;47.716;9.070;2024-03-22T05:23:14;97497.19;;;8.44;100.00
6514;BME280;3290;47.716;9.070;2024-03-22T05:25:41;97492.81;;;8.51;100.00
6514;BME280;3290;47.716;9.070;2024-03-22T05:28:07;97485.59;;;8.53;100.00
6514;BME280;3290;47.716;9.070;2024-03-22T05:30:32;97479.94;;;8.50;100.00
6514;BME280;3290;47.716;9.070;2024-03-22T05:32:58;97490.28;;;8.37;100.00
6514;BME280;3290;47.716;9.070;2024-03-22T05:35:23;97488.09;;;8.61;100.00
6514;BME280;3290;47.716;9.070;2024-03-22T05:37:49;97486.22;;;8.55;100.00
6514;BME280;3290;47.716;9.070;2024-03-22T05:40:15;97486.41;;;8.54;100.00
6514;BME280;3290;47.716;9.070;2024-03-22T05:42:41;97477.75;;;8.74;100.00
6514;BME280;3290;47.716;9.070;2024-03-22T05:45:06;97476.84;;;8.88;100.00
6514;BME280;3290;47.716;9.070;2024-03-22T05:47:32;97476.19;;;9.07;100.00
6514;BME280;3290;47.716;9.070;2024-03-22T05:49:58;97481.31;;;9.21;100.00
6514;BME280;3290;47.716;9.070;2024-03-22T05:52:24;97486.59;;;9.27;100.00
6514;BME280;3290;47.716;9.070;2024-03-22T05:54:49;97481.91;;;9.23;100.00
6514;BME280;3290;47.716;9.070;2024-03-22T05:57:14;97474.97;;;9.36;100.00
6514;BME280;3290;47.716;9.070;2024-03-22T05:59:40;97483.16;;;9.67;100.00
6514;BME280;3290;47.716;9.070;2024-03-22T06:02:05;97470.94;;;9.87;100.00
6514;BME280;3290;47.716;9.070;2024-03-22T06:04:31;97485.38;;;10.23;100.00
6514;BME280;3290;47.716;9.070;2024-03-22T06:06:56;97485.59;;;10.34;100.00
6514;BME280;3290;47.716;9.070;2024-03-22T06:09:25;97476.97;;;10.78;100.00
6514;BME280;3290;47.716;9.070;2024-03-22T06:12:00;97479.19;;;10.56;100.00
6514;BME280;3290;47.716;9.070;2024-03-22T06:14:27;97479.00;;;10.57;100.00
6514;BME280;3290;47.716;9.070;2024-03-22T06:16:53;97482.19;;;10.53;100.00
6514;BME280;3290;47.716;9.070;2024-03-22T06:19:18;97480.59;;;10.77;100.00
6514;BME280;3290;47.716;9.070;2024-03-22T06:21:43;97475.78;;;10.75;100.00
6514;BME280;3290;47.716;9.070;2024-03-22T06:24:09;97472.56;;;10.85;99.99
6514;BME280;3290;47.716;9.070;2024-03-22T06:26:34;97479.00;;;10.96;100.00
6514;BME280;3290;47.716;9.070;2024-03-22T06:28:59;97470.69;;;11.24;99.98
6514;BME280;3290;47.716;9.070;2024-03-22T06:31:24;97464.22;;;11.96;97.13
6514;BME280;3290;47.716;9.070;2024-03-22T06:33:50;97464.91;;;12.16;95.80
6514;BME280;3290;47.716;9.070;2024-03-22T06:36:15;97460.50;;;11.66;97.18
6514;BME280;3290;47.716;9.070;2024-03-22T06:38:41;97459.81;;;11.90;96.63
6514;BME280;3290;47.716;9.070;2024-03-22T06:41:06;97455.06;;;11.61;98.23
6514;BME280;3290;47.716;9.070;2024-03-22T06:43:31;97460.75;;;11.46;100.00
6514;BME280;3290;47.716;9.070;2024-03-22T06:45:57;97458.94;;;12.02;99.29
6514;BME280;3290;47.716;9.070;2024-03-22T06:48:22;97455.38;;;12.21;96.36
6514;BME280;3290;47.716;9.070;2024-03-22T06:50:47;97461.59;;;11.90;98.21
6514;BME280;3290;47.716;9.070;2024-03-22T06:53:13;97466.13;;;12.20;97.03
6514;BME280;3290;47.716;9.070;2024-03-22T06:55:38;97458.63;;;12.47;94.87
6514;BME280;3290;47.716;9.070;2024-03-22T06:58:04;97457.31;;;11.95;98.96
6514;BME280;3290;47.716;9.070;2024-03-22T07:00:29;97459.97;;;11.52;100.00
6514;BME280;3290;47.716;9.070;2024-03-22T07:02:55;97453.22;;;11.68;100.00
6514;BME280;3290;47.716;9.070;2024-03-22T07:05:21;97451.03;;;11.65;100.00
6514;BME280;3290;47.716;9.070;2024-03-22T07:07:47;97451.88;;;11.34;100.00
6514;BME280;3290;47.716;9.070;2024-03-22T07:10:12;97460.31;;;12.05;100.00
6514;BME280;3290;47.716;9.070;2024-03-22T07:12:38;97462.78;;;12.61;97.51
6514;BME280;3290;47.716;9.070;2024-03-22T07:15:05;97450.78;;;13.20;94.70
6514;BME280;3290;47.716;9.070;2024-03-22T07:17:30;97455.72;;;12.86;95.05
6514;BME280;3290;47.716;9.070;2024-03-22T07:19:55;97444.63;;;13.26;96.33
6514;BME280;3290;47.716;9.070;2024-03-22T07:22:22;97440.50;;;13.72;93.41
6514;BME280;3290;47.716;9.070;2024-03-22T07:24:47;97439.56;;;13.07;92.33
6514;BME280;3290;47.716;9.070;2024-03-22T07:27:14;97439.84;;;12.99;93.61
6514;BME280;3290;47.716;9.070;2024-03-22T07:29:42;97445.50;;;13.73;87.53
6514;BME280;3290;47.716;9.070;2024-03-22T07:32:09;97447.06;;;13.81;90.08
6514;BME280;3290;47.716;9.070;2024-03-22T07:34:34;97449.69;;;14.28;87.79
6514;BME280;3290;47.716;9.070;2024-03-22T07:36:59;97444.75;;;14.31;85.22
6514;BME280;3290;47.716;9.070;2024-03-22T07:39:25;97449.66;;;14.57;84.90
6514;BME280;3290;47.716;9.070;2024-03-22T07:41:50;97441.53;;;14.70;83.06
6514;BME280;3290;47.716;9.070;2024-03-22T07:44:16;97450.09;;;14.13;85.19
6514;BME280;3290;47.716;9.070;2024-03-22T07:46:52;97447.53;;;13.89;87.39
6514;BME280;3290;47.716;9.070;2024-03-22T07:49:17;97441.81;;;14.39;84.67
6514;BME280;3290;47.716;9.070;2024-03-22T07:51:43;97448.31;;;14.54;83.48
6514;BME280;3290;47.716;9.070;2024-03-22T07:54:08;97437.56;;;14.27;86.39
6514;BME280;3290;47.716;9.070;2024-03-22T07:56:34;97439.97;;;14.91;82.33
6514;BME280;3290;47.716;9.070;2024-03-22T07:58:59;97441.34;;;14.82;82.46
6514;BME280;3290;47.716;9.070;2024-03-22T08:01:25;97437.44;;;14.74;82.77
6514;BME280;3290;47.716;9.070;2024-03-22T08:03:51;97439.44;;;15.23;78.85
6514;BME280;3290;47.716;9.070;2024-03-22T08:06:16;97431.03;;;15.38;76.08
6514;BME280;3290;47.716;9.070;2024-03-22T08:08:42;97420.25;;;15.78;74.63
6514;BME280;3290;47.716;9.070;2024-03-22T08:11:07;97427.50;;;15.94;72.67
6514;BME280;3290;47.716;9.070;2024-03-22T08:13:32;97427.16;;;15.91;72.61
6514;BME280;3290;47.716;9.070;2024-03-22T08:15:58;97425.47;;;15.73;71.19
6514;BME280;3290;47.716;9.070;2024-03-22T08:18:23;97415.16;;;16.00;72.03
6514;BME280;3290;47.716;9.070;2024-03-22T08:20:48;97413.13;;;16.45;69.73
6514;BME280;3290;47.716;9.070;2024-03-22T08:23:14;97405.78;;;15.42;74.18
6514;BME280;3290;47.716;9.070;2024-03-22T08:25:39;97401.19;;;15.49;76.22
6514;BME280;3290;47.716;9.070;2024-03-22T08:28:04;97403.16;;;15.81;73.71
6514;BME280;3290;47.716;9.070;2024-03-22T08:30:30;97406.44;;;16.27;71.80
6514;BME280;3290;47.716;9.070;2024-03-22T08:32:55;97410.69;;;15.61;74.05
6514;BME280;3290;47.716;9.070;2024-03-22T08:35:21;97416.66;;;16.51;71.70
6514;BME280;3290;47.716;9.070;2024-03-22T08:37:46;97407.28;;;16.76;70.48
6514;BME280;3290;47.716;9.070;2024-03-22T08:40:12;97394.63;;;16.78;70.75
6514;BME280;3290;47.716;9.070;2024-03-22T08:42:39;97394.97;;;17.35;65.55
6514;BME280;3290;47.716;9.070;2024-03-22T08:45:05;97406.16;;;17.80;63.09
6514;BME280;3290;47.716;9.070;2024-03-22T08:47:30;97396.16;;;17.65;63.54
6514;BME280;3290;47.716;9.070;2024-03-22T08:49:56;97393.81;;;17.69;63.40
6514;BME280;3290;47.716;9.070;2024-03-22T08:52:23;97386.84;;;17.84;61.28
6514;BME280;3290;47.716;9.070;2024-03-22T08:54:50;97388.72;;;17.63;62.19
6514;BME280;3290;47.716;9.070;2024-03-22T08:57:15;97387.53;;;17.32;65.49
6514;BME280;3290;47.716;9.070;2024-03-22T08:59:40;97387.06;;;16.86;64.77
6514;BME280;3290;47.716;9.070;2024-03-22T09:02:06;97385.34;;;18.14;61.24
6514;BME280;3290;47.716;9.070;2024-03-22T09:04:31;97373.72;;;17.14;64.53
6514;BME280;3290;47.716;9.070;2024-03-22T09:06:56;97379.78;;;18.73;59.07
6514;BME280;3290;47.716;9.070;2024-03-22T09:09:23;97371.34;;;18.45;58.91
6514;BME280;3290;47.716;9.070;2024-03-22T09:11:48;97372.78;;;18.31;58.20
6514;BME280;3290;47.716;9.070;2024-03-22T09:14:14;97364.94;;;19.08;57.32
6514;BME280;3290;47.716;9.070;2024-03-22T09:16:39;97368.63;;;19.02;57.77
6514;BME280;3290;47.716;9.070;2024-03-22T09:19:05;97363.38;;;17.50;60.36
6514;BME280;3290;47.716;9.070;2024-03-22T09:21:31;97364.34;;;17.87;62.39
6514;BME280;3290;47.716;9.070;2024-03-22T09:23:57;97361.06;;;18.01;61.22
6514;BME280;3290;47.716;9.070;2024-03-22T09:26:22;97353.59;;;19.23;56.16
6514;BME280;3290;47.716;9.070;2024-03-22T09:28:48;97350.09;;;19.12;55.15
6514;BME280;3290;47.716;9.070;2024-03-22T09:31:15;97354.03;;;17.64;58.67
6514;BME280;3290;47.716;9.070;2024-03-22T09:33:41;97339.19;;;19.65;55.06
6514;BME280;3290;47.716;9.070;2024-03-22T09:36:07;97340.72;;;19.00;56.09
6514;BME280;3290;47.716;9.070;2024-03-22T09:38:33;97333.84;;;19.55;54.75
6514;BME280;3290;47.716;9.070;2024-03-22T09:40:58;97333.56;;;20.81;49.91
6514;BME280;3290;47.716;9.070;2024-03-22T09:43:25;97325.44;;;21.40;48.30
6514;BME280;3290;47.716;9.070;2024-03-22T09:45:52;97322.53;;;21.27;48.17
6514;BME280;3290;47.716;9.070;2024-03-22T09:48:19;97316.78;;;20.81;50.12
6514;BME280;3290;47.716;9.070;2024-03-22T09:50:47;97311.41;;;21.00;48.42
6514;BME280;3290;47.716;9.070;2024-03-22T09:53:14;97318.06;;;20.19;51.34
6514;BME280;3290;47.716;9.070;2024-03-22T09:55:44;97326.59;;;20.50;50.80
6514;BME280;3290;47.716;9.070;2024-03-22T09:58:10;97312.75;;;20.93;51.42
6514;BME280;3290;47.716;9.070;2024-03-22T10:00:36;97309.31;;;20.83;49.15
6514;BME280;3290;47.716;9.070;2024-03-22T10:03:02;97306.78;;;21.30;47.96
6514;BME280;3290;47.716;9.070;2024-03-22T10:05:29;97292.81;;;20.76;48.83
6514;BME280;3290;47.716;9.070;2024-03-22T10:07:55;97288.19;;;21.16;48.37
6514;BME280;3290;47.716;9.070;2024-03-22T10:10:20;97291.66;;;21.06;48.87
6514;BME280;3290;47.716;9.070;2024-03-22T10:12:46;97291.75;;;21.59;47.26
6514;BME280;3290;47.716;9.070;2024-03-22T10:15:11;97286.84;;;21.13;48.18
6514;BME280;3290;47.716;9.070;2024-03-22T10:17:38;97281.84;;;20.92;50.65
6514;BME280;3290;47.716;9.070;2024-03-22T10:20:05;97270.56;;;21.20;48.38
6514;BME280;3290;47.716;9.070;2024-03-22T10:22:35;97270.66;;;21.00;47.78
6514;BME280;3290;47.716;9.070;2024-03-22T10:25:00;97266.31;;;21.81;46.72
6514;BME280;3290;47.716;9.070;2024-03-22T10:27:27;97270.50;;;21.49;46.63
6514;BME280;3290;47.716;9.070;2024-03-22T10:29:54;97265.97;;;22.31;44.88
6514;BME280;3290;47.716;9.070;2024-03-22T10:32:20;97267.16;;;21.77;44.87
6514;BME280;3290;47.716;9.070;2024-03-22T10:34:46;97268.72;;;21.78;45.04
6514;BME280;3290;47.716;9.070;2024-03-22T10:37:14;97264.00;;;20.88;47.61
6514;BME280;3290;47.716;9.070;2024-03-22T10:39:42;97250.47;;;20.45;48.57
6514;BME280;3290;47.716;9.070;2024-03-22T10:42:08;97258.19;;;20.66;48.92
6514;BME280;3290;47.716;9.070;2024-03-22T10:44:33;97247.78;;;20.30;47.96
6514;BME280;3290;47.716;9.070;2024-03-22T10:47:01;97247.06;;;21.31;46.08
6514;BME280;3290;47.716;9.070;2024-03-22T10:49:28;97237.00;;;22.48;44.12
6514;BME280;3290;47.716;9.070;2024-03-22T10:51:58;97238.91;;;22.09;43.04
6514;BME280;3290;47.716;9.070;2024-03-22T10:54:34;97240.13;;;22.26;42.98
6514;BME280;3290;47.716;9.070;2024-03-22T10:57:01;97231.63;;;22.19;43.83
6514;BME280;3290;47.716;9.070;2024-03-22T10:59:33;97228.72;;;22.11;43.00
6514;BME280;3290;47.716;9.070;2024-03-22T11:02:03;97224.94;;;21.84;44.05
6514;BME280;3290;47.716;9.070;2024-03-22T11:04:30;97218.28;;;22.48;42.05
6514;BME280;3290;47.716;9.070;2024-03-22T11:06:56;97221.44;;;21.35;45.30
6514;BME280;3290;47.716;9.070;2024-03-22T11:09:26;97220.53;;;21.98;46.18
6514;BME280;3290;47.716;9.070;2024-03-22T11:11:53;97212.66;;;21.83;45.22
6514;BME280;3290;47.716;9.070;2024-03-22T11:14:19;97208.16;;;22.73;43.35
6514;BME280;3290;47.716;9.070;2024-03-22T11:16:46;97214.13;;;22.65;42.57
6514;BME280;3290;47.716;9.070;2024-03-22T11:19:11;97203.03;;;22.53;40.85
6514;BME280;3290;47.716;9.070;2024-03-22T11:21:37;97196.22;;;22.65;41.18
6514;BME280;3290;47.716;9.070;2024-03-22T11:24:04;97186.59;;;22.36;41.55
6514;BME280;3290;47.716;9.070;2024-03-22T11:26:29;97181.38;;;22.78;39.92
6514;BME280;3290;47.716;9.070;2024-03-22T11:28:54;97177.50;;;22.89;42.58
6514;BME280;3290;47.716;9.070;2024-03-22T11:31:20;97180.19;;;22.65;39.59
6514;BME280;3290;47.716;9.070;2024-03-22T11:33:51;97170.19;;;23.22;38.66
6514;BME280;3290;47.716;9.070;2024-03-22T11:36:17;97171.88;;;22.44;42.65
6514;BME280;3290;47.716;9.070;2024-03-22T11:38:42;97169.06;;;21.97;43.71
6514;BME280;3290;47.716;9.070;2024-03-22T11:41:08;97157.28;;;22.83;39.34
6514;BME280;3290;47.716;9.070;2024-03-22T11:43:34;97148.81;;;22.76;38.52
6514;BME280;3290;47.716;9.070;2024-03-22T11:46:00;97152.13;;;21.35;41.10
6514;BME280;3290;47.716;9.070;2024-03-22T11:48:27;97154.75;;;21.83;40.46
6514;BME280;3290;47.716;9.070;2024-03-22T11:50:52;97137.47;;;22.37;39.81
6514;BME280;3290;47.716;9.070;2024-03-22T11:53:18;97136.88;;;22.92;38.15
6514;BME280;3290;47.716;9.070;2024-03-22T11:55:43;97136.31;;;22.94;39.97
6514;BME280;3290;47.716;9.070;2024-03-22T11:58:11;97127.66;;;23.39;37.35
6514;BME280;3290;47.716;9.070;2024-03-22T12:00:37;97135.22;;;22.49;39.03
6514;BME280;3290;47.716;9.070;2024-03-22T12:03:04;97114.91;;;21.92;40.46
6514;BME280;3290;47.716;9.070;2024-03-22T12:05:31;97120.66;;;22.09;42.19
6514;BME280;3290;47.716;9.070;2024-03-22T12:07:56;97130.13;;;21.63;39.83
6514;BME280;3290;47.716;9.070;2024-03-22T12:10:21;97120.25;;;21.59;41.57
6514;BME280;3290;47.716;9.070;2024-03-22T12:12:47;97107.09;;;22.33;41.23
6514;BME280;3290;47.716;9.070;2024-03-22T12:15:12;97101.03;;;22.23;39.41
6514;BME280;3290;47.716;9.070;2024-03-22T12:17:37;97100.13;;;22.79;38.20
6514;BME280;3290;47.716;9.070;2024-03-22T12:20:06;97100.69;;;22.76;38.89
6514;BME280;3290;47.716;9.070;2024-03-22T12:22:33;97097.41;;;22.60;39.26
6514;BME280;3290;47.716;9.070;2024-03-22T12:24:59;97090.59;;;22.26;40.37
6514;BME280;3290;47.716;9.070;2024-03-22T12:27:24;97078.09;;;23.65;36.75
6514;BME280;3290;47.716;9.070;2024-03-22T12:29:50;97080.53;;;23.43;36.37
6514;BME280;3290;47.716;9.070;2024-03-22T12:32:15;97069.19;;;23.51;37.45
6514;BME280;3290;47.716;9.070;2024-03-22T12:34:40;97070.25;;;24.45;34.02
6514;BME280;3290;47.716;9.070;2024-03-22T12:37:06;97061.25;;;23.28;36.21
6514;BME280;3290;47.716;9.070;2024-03-22T12:39:32;97059.13;;;23.93;33.88
6514;BME280;3290;47.716;9.070;2024-03-22T12:41:57;97063.28;;;23.85;36.11
6514;BME280;3290;47.716;9.070;2024-03-22T12:44:23;97049.53;;;23.05;34.40
6514;BME280;3290;47.716;9.070;2024-03-22T12:46:48;97037.28;;;23.54;36.29
6514;BME280;3290;47.716;9.070;2024-03-22T12:49:16;97037.16;;;23.46;34.02
6514;BME280;3290;47.716;9.070;2024-03-22T12:51:41;97028.28;;;23.32;36.73
6514;BME280;3290;47.716;9.070;2024-03-22T12:54:07;97028.63;;;23.44;34.64
6514;BME280;3290;47.716;9.070;2024-03-22T12:56:33;97022.47;;;23.62;34.91
6514;BME280;3290;47.716;9.070;2024-03-22T12:58:58;97018.22;;;22.88;35.94
6514;BME280;3290;47.716;9.070;2024-03-22T13:01:24;97010.69;;;22.94;35.49
6514;BME280;3290;47.716;9.070;2024-03-22T13:03:49;97001.38;;;22.69;36.45
6514;BME280;3290;47.716;9.070;2024-03-22T13:06:14;97003.72;;;22.75;35.47
6514;BME280;3290;47.716;9.070;2024-03-22T13:08:40;97002.72;;;22.90;36.81
6514;BME280;3290;47.716;9.070;2024-03-22T13:11:05;96992.72;;;22.58;34.68
6514;BME280;3290;47.716;9.070;2024-03-22T13:13:34;96988.53;;;22.71;34.78